createdAt,value
2023-03-02T00:01:58.527Z,26.20
2023-03-02T00:04:34.632Z,27.53
2023-03-02T00:07:05.780Z,29.67
2023-03-02T00:09:32.808Z,33.13
2023-03-02T00:12:00.192Z,28.67
2023-03-02T00:14:27.144Z,27.23
2023-03-02T00:16:54.388Z,31.07
2023-03-02T00:19:21.659Z,29.63
2023-03-02T00:21:48.830Z,30.97
2023-03-02T00:24:15.950Z,29.97
2023-03-02T00:26:43.183Z,30.57
2023-03-02T00:29:10.079Z,26.73
2023-03-02T00:31:38.377Z,25.33
2023-03-02T00:34:05.313Z,26.35
2023-03-02T00:36:32.542Z,26.50
2023-03-02T00:38:59.566Z,24.90
2023-03-02T00:41:27.154Z,26.20
2023-03-02T00:43:54.079Z,29.93
2023-03-02T00:46:23.122Z,29.63
2023-03-02T00:51:18.269Z,27.67
2023-03-02T00:53:45.212Z,28.40
2023-03-02T00:56:13.364Z,29.37
2023-03-02T00:58:40.623Z,25.30
2023-03-02T01:01:10.603Z,28.13
2023-03-02T01:03:37.901Z,27.20
2023-03-02T01:06:05.989Z,28.97
2023-03-02T01:08:32.889Z,29.00
2023-03-02T01:11:01.594Z,29.10
2023-03-02T01:13:28.784Z,28.83
2023-03-02T01:16:03.066Z,28.37
2023-03-02T01:18:30.040Z,27.10
2023-03-02T01:21:05.401Z,25.00
2023-03-02T01:23:32.672Z,28.33
2023-03-02T01:25:59.972Z,27.90
2023-03-02T01:28:27.085Z,26.53
2023-03-02T01:30:54.543Z,26.10
2023-03-02T01:33:21.640Z,28.43
2023-03-02T01:35:49.406Z,27.77
2023-03-02T01:38:16.444Z,27.63
2023-03-02T01:40:43.843Z,26.40
2023-03-02T01:43:13.786Z,25.87
2023-03-02T01:45:53.954Z,26.30
2023-03-02T01:48:27.705Z,24.73
2023-03-02T01:50:55.267Z,27.17
2023-03-02T01:53:25.251Z,26.70
2023-03-02T01:55:53.090Z,26.20
2023-03-02T01:58:21.018Z,26.70
2023-03-02T02:00:49.111Z,25.55
2023-03-02T02:03:24.913Z,24.40
2023-03-02T02:06:18.155Z,25.73
2023-03-02T02:08:47.424Z,26.23
2023-03-02T02:11:15.024Z,25.23
2023-03-02T02:13:43.387Z,23.40
2023-03-02T02:16:10.857Z,25.58
2023-03-02T02:18:40.134Z,25.07
2023-03-02T02:21:08.455Z,26.37
2023-03-02T02:23:53.900Z,24.67
2023-03-02T02:26:37.245Z,26.93
2023-03-02T02:29:30.367Z,28.17
2023-03-02T02:32:03.012Z,28.70
2023-03-02T02:34:39.436Z,29.07
2023-03-02T02:37:24.087Z,25.83
2023-03-02T02:39:51.883Z,26.87
2023-03-02T02:42:32.763Z,23.50
2023-03-02T02:45:05.878Z,24.03
2023-03-02T02:47:34.150Z,26.53
2023-03-02T02:50:01.186Z,25.25
2023-03-02T02:52:29.721Z,26.13
2023-03-02T02:54:59.143Z,26.05
2023-03-02T02:57:29.567Z,27.43
2023-03-02T02:59:59.377Z,28.73
2023-03-02T03:02:30.682Z,28.90
2023-03-02T03:05:03.432Z,26.13
2023-03-02T03:07:32.340Z,27.63
2023-03-02T03:10:26.203Z,26.98
2023-03-02T03:12:53.608Z,27.50
2023-03-02T03:15:21.113Z,26.83
2023-03-02T03:17:55.343Z,29.57
2023-03-02T03:20:23.184Z,30.07
2023-03-02T03:22:53.500Z,30.48
2023-03-02T03:25:22.253Z,28.30
2023-03-02T03:27:49.420Z,24.67
2023-03-02T03:30:17.106Z,24.97
2023-03-02T03:32:44.728Z,26.30
2023-03-02T03:35:12.633Z,23.73
2023-03-02T03:37:41.431Z,27.65
2023-03-02T03:40:09.903Z,25.45
2023-03-02T03:42:38.441Z,23.25
2023-03-02T03:45:07.057Z,25.35
2023-03-02T03:50:01.215Z,27.70
2023-03-02T03:52:31.509Z,28.37
2023-03-02T03:55:00.211Z,29.97
2023-03-02T03:57:29.105Z,30.73
2023-03-02T03:59:56.475Z,31.50
2023-03-02T04:02:24.333Z,30.27
2023-03-02T04:04:51.331Z,29.60
2023-03-02T04:07:18.674Z,32.87
2023-03-02T04:09:45.562Z,31.10
2023-03-02T04:12:12.833Z,31.50
2023-03-02T04:14:39.826Z,29.53
2023-03-02T04:17:07.590Z,29.83
2023-03-02T04:19:35.664Z,28.17
2023-03-02T04:22:04.357Z,32.42
2023-03-02T04:24:31.858Z,27.70
2023-03-02T04:26:59.128Z,30.50
2023-03-02T04:29:26.389Z,31.50
2023-03-02T04:31:53.894Z,30.77
2023-03-02T04:34:20.996Z,30.23
2023-03-02T04:36:48.200Z,32.97
2023-03-02T04:39:16.747Z,32.13
2023-03-02T04:44:11.203Z,32.33
2023-03-02T04:46:39.193Z,32.80
2023-03-02T04:49:06.640Z,30.93
2023-03-02T04:51:39.953Z,31.50
2023-03-02T04:54:13.439Z,32.13
2023-03-02T04:56:40.710Z,32.87
2023-03-02T04:59:07.645Z,35.83
2023-03-02T05:01:34.945Z,34.13
2023-03-02T05:04:03.069Z,37.40
2023-03-02T05:06:30.760Z,39.10
2023-03-02T05:08:59.966Z,40.27
2023-03-02T05:11:27.297Z,42.93
2023-03-02T05:13:57.878Z,36.10
2023-03-02T05:16:29.444Z,35.33
2023-03-02T05:18:56.652Z,36.53
2023-03-02T05:21:24.421Z,36.60
2023-03-02T05:23:52.067Z,33.77
2023-03-02T05:26:19.400Z,33.95
2023-03-02T05:28:46.625Z,33.70
2023-03-02T05:31:19.592Z,34.40
2023-03-02T05:33:46.664Z,35.63
2023-03-02T05:36:13.903Z,33.40
2023-03-02T05:38:40.833Z,32.77
2023-03-02T05:41:08.041Z,35.67
2023-03-02T05:43:34.979Z,31.97
2023-03-02T05:46:02.574Z,34.27
2023-03-02T05:48:30.641Z,32.17
2023-03-02T05:50:58.318Z,29.15
2023-03-02T05:53:25.670Z,31.17
2023-03-02T05:55:53.463Z,28.60
2023-03-02T05:58:20.717Z,33.57
2023-03-02T06:00:48.898Z,30.93
2023-03-02T06:03:16.952Z,32.83
2023-03-02T06:05:44.207Z,33.50
2023-03-02T06:08:11.291Z,36.57
2023-03-02T06:10:38.695Z,33.57
2023-03-02T06:13:05.662Z,38.73
2023-03-02T06:15:32.940Z,38.83
2023-03-02T06:17:59.869Z,37.40
2023-03-02T06:20:27.129Z,40.00
2023-03-02T06:22:54.274Z,39.07
2023-03-02T06:25:23.953Z,35.43
2023-03-02T06:27:53.768Z,36.17
2023-03-02T06:30:23.952Z,34.97
2023-03-02T06:32:51.102Z,40.17
2023-03-02T06:35:18.703Z,37.40
2023-03-02T06:37:45.674Z,40.20
2023-03-02T06:40:14.096Z,42.17
2023-03-02T06:42:42.563Z,42.87
2023-03-02T06:45:11.189Z,41.80
2023-03-02T06:47:38.286Z,38.97
2023-03-02T06:50:06.241Z,39.03
2023-03-02T06:52:33.386Z,40.40
2023-03-02T06:55:00.885Z,38.97
2023-03-02T06:57:33.893Z,38.85
2023-03-02T07:00:06.907Z,39.93
2023-03-02T07:02:33.854Z,42.33
2023-03-02T07:05:01.113Z,41.65
2023-03-02T07:07:28.138Z,39.47
2023-03-02T07:09:55.323Z,37.63
2023-03-02T07:12:22.507Z,36.15
2023-03-02T07:14:49.650Z,33.33
2023-03-02T07:17:16.592Z,32.33
2023-03-02T07:19:43.750Z,33.30
2023-03-02T07:22:10.720Z,29.38
2023-03-02T07:24:37.941Z,29.02
2023-03-02T07:27:04.812Z,28.92
2023-03-02T07:29:31.987Z,29.40
2023-03-02T07:32:01.966Z,29.70
2023-03-02T07:34:30.624Z,33.00
2023-03-02T07:36:58.007Z,36.00
2023-03-02T07:39:25.221Z,37.17
2023-03-02T07:41:52.125Z,34.67
2023-03-02T07:44:19.313Z,34.60
2023-03-02T07:46:46.287Z,33.70
2023-03-02T07:49:13.484Z,33.15
2023-03-02T07:51:40.351Z,33.67
2023-03-02T07:54:07.582Z,36.97
2023-03-02T07:56:34.720Z,37.97
2023-03-02T07:59:01.918Z,36.05
2023-03-02T08:01:28.836Z,42.17
2023-03-02T08:03:56.081Z,43.05
2023-03-02T08:06:23.099Z,32.97
2023-03-02T08:08:50.315Z,33.72
2023-03-02T08:11:18.732Z,30.95
2023-03-02T08:13:46.663Z,29.90
2023-03-02T08:16:15.407Z,30.00
2023-03-02T08:21:15.157Z,35.38
2023-03-02T08:23:42.824Z,37.90
2023-03-02T08:26:12.596Z,31.65
2023-03-02T08:28:40.785Z,38.72
2023-03-02T08:31:09.180Z,41.05
2023-03-02T08:33:36.888Z,73.75
2023-03-02T08:36:11.465Z,74.55
2023-03-02T08:38:39.025Z,85.28
2023-03-02T08:41:09.017Z,125.05
2023-03-02T08:43:36.590Z,132.48
2023-03-02T08:46:04.187Z,116.78
2023-03-02T08:48:31.874Z,136.30
2023-03-02T08:51:09.540Z,80.38
2023-03-02T08:53:40.120Z,46.67
2023-03-02T08:56:17.015Z,40.30
2023-03-02T08:58:44.362Z,44.85
2023-03-02T09:01:23.846Z,42.28
2023-03-02T09:03:51.652Z,33.35
2023-03-02T09:06:19.134Z,35.75
2023-03-02T09:08:46.875Z,32.88
2023-03-02T09:11:14.227Z,32.55
2023-03-02T09:13:41.573Z,29.75
2023-03-02T09:16:09.975Z,29.98
2023-03-02T09:18:40.031Z,32.10
2023-03-02T09:21:23.611Z,27.10
2023-03-02T09:24:00.567Z,29.52
2023-03-02T09:26:29.664Z,28.70
2023-03-02T09:28:57.382Z,27.45
2023-03-02T09:31:24.677Z,27.42
2023-03-02T09:33:52.034Z,28.73
2023-03-02T09:36:22.199Z,26.90
2023-03-02T09:38:49.771Z,25.05
2023-03-02T09:41:19.865Z,24.42
2023-03-02T09:44:15.072Z,22.50
2023-03-02T09:46:46.639Z,23.70
2023-03-02T09:49:33.042Z,21.25
2023-03-02T09:52:08.846Z,22.40
2023-03-02T09:54:38.085Z,23.38
2023-03-02T09:57:20.976Z,20.58
2023-03-02T10:00:09.499Z,29.83
2023-03-02T10:03:17.412Z,15.07
2023-03-02T10:05:54.275Z,18.50
2023-03-02T10:08:29.580Z,21.00
2023-03-02T10:11:41.917Z,21.63
2023-03-02T10:14:15.526Z,23.23
2023-03-02T10:16:52.680Z,20.42
2023-03-02T10:19:27.676Z,20.13
2023-03-02T10:22:03.280Z,18.08
2023-03-02T10:24:39.108Z,17.27
2023-03-02T10:27:24.611Z,19.23
2023-03-02T10:29:58.827Z,19.58
2023-03-02T10:32:33.063Z,21.98
2023-03-02T10:35:10.984Z,19.50
2023-03-02T10:37:38.265Z,20.25
2023-03-02T10:40:05.525Z,20.35
2023-03-02T10:42:37.761Z,19.23
2023-03-02T10:45:25.152Z,19.63
2023-03-02T10:48:09.355Z,21.23
2023-03-02T10:50:37.268Z,17.38
2023-03-02T10:53:08.690Z,18.67
2023-03-02T10:55:35.601Z,17.02
2023-03-02T10:58:07.077Z,19.00
2023-03-02T11:00:34.988Z,19.13
2023-03-02T11:03:05.949Z,17.48
2023-03-02T11:05:38.618Z,17.88
2023-03-02T11:08:10.446Z,18.13
2023-03-02T11:10:40.721Z,18.50
2023-03-02T11:13:17.277Z,17.00
2023-03-02T11:15:50.959Z,18.60
2023-03-02T11:18:26.947Z,17.45
2023-03-02T11:21:00.030Z,18.23
2023-03-02T11:23:37.752Z,16.88
2023-03-02T11:26:30.767Z,16.90
2023-03-02T11:29:03.787Z,16.75
2023-03-02T11:31:44.250Z,16.70
2023-03-02T11:34:26.523Z,15.25
2023-03-02T11:37:20.749Z,16.60
2023-03-02T11:39:54.940Z,15.80
2023-03-02T11:42:35.284Z,15.68
2023-03-02T11:45:20.779Z,15.32
2023-03-02T11:48:06.435Z,15.65
2023-03-02T11:50:40.214Z,15.77
2023-03-02T11:53:14.446Z,15.05
2023-03-02T11:55:45.839Z,14.90
2023-03-02T11:58:21.031Z,16.02
2023-03-02T12:00:49.663Z,15.75
2023-03-02T12:03:16.491Z,15.35
2023-03-02T12:06:07.155Z,16.13
2023-03-02T12:08:44.882Z,15.32
2023-03-02T12:11:17.979Z,15.75
2023-03-02T12:13:57.861Z,15.73
2023-03-02T12:16:43.021Z,16.08
2023-03-02T12:19:27.362Z,16.48
2023-03-02T12:22:05.671Z,15.77
2023-03-02T12:24:34.997Z,14.73
2023-03-02T12:27:27.285Z,15.90
2023-03-02T12:30:16.294Z,17.45
2023-03-02T12:33:00.188Z,16.75
2023-03-02T12:35:30.433Z,16.25
2023-03-02T12:38:01.899Z,16.15
2023-03-02T12:40:40.769Z,15.77
2023-03-02T12:43:27.700Z,15.45
2023-03-02T12:46:19.441Z,15.32
2023-03-02T12:48:57.432Z,15.88
2023-03-02T12:51:27.277Z,15.38
2023-03-02T12:54:12.304Z,14.85
2023-03-02T12:56:39.646Z,15.82
2023-03-02T12:59:07.030Z,16.02
2023-03-02T13:01:34.852Z,15.88
2023-03-02T13:04:02.067Z,15.20
2023-03-02T13:06:32.683Z,15.88
2023-03-02T13:09:00.835Z,14.40
2023-03-02T13:11:32.747Z,15.20
2023-03-02T13:14:03.844Z,15.40
2023-03-02T13:16:34.404Z,13.20
2023-03-02T13:19:09.351Z,13.55
2023-03-02T13:21:39.348Z,12.68
2023-03-02T13:24:28.508Z,13.45
2023-03-02T13:26:59.540Z,12.80
2023-03-02T13:29:27.792Z,12.57
2023-03-02T13:31:55.369Z,12.02
2023-03-02T13:34:28.259Z,15.77
2023-03-02T13:36:55.660Z,15.38
2023-03-02T13:39:32.052Z,13.65
2023-03-02T13:42:01.081Z,13.63
2023-03-02T13:44:31.506Z,13.38
2023-03-02T13:46:59.132Z,13.35
2023-03-02T13:49:35.377Z,16.45
2023-03-02T13:52:05.907Z,13.05
2023-03-02T13:54:37.394Z,13.35
2023-03-02T13:57:06.426Z,13.05
2023-03-02T13:59:36.599Z,20.55
2023-03-02T14:02:11.363Z,14.73
2023-03-02T14:04:38.683Z,16.73
2023-03-02T14:07:05.658Z,16.13
2023-03-02T14:09:32.844Z,22.58
2023-03-02T14:11:59.730Z,18.17
2023-03-02T14:14:29.235Z,17.83
2023-03-02T14:16:56.741Z,16.33
2023-03-02T14:19:23.960Z,15.73
2023-03-02T14:21:50.939Z,19.08
2023-03-02T14:24:18.153Z,22.25
2023-03-02T14:26:48.004Z,149.35
2023-03-02T14:29:30.296Z,115.55
2023-03-02T14:32:06.778Z,38.72
2023-03-02T14:34:37.266Z,20.95
2023-03-02T14:37:07.786Z,16.05
2023-03-02T14:39:54.325Z,17.88
2023-03-02T14:42:23.019Z,19.60
2023-03-02T14:44:51.564Z,15.85
2023-03-02T14:47:19.746Z,16.20
2023-03-02T14:49:47.171Z,18.83
2023-03-02T14:52:35.880Z,17.23
2023-03-02T14:55:06.939Z,19.38
2023-03-02T14:57:36.803Z,17.95
2023-03-02T15:00:05.592Z,26.50
2023-03-02T15:02:32.695Z,21.35
2023-03-02T15:04:59.970Z,21.42
2023-03-02T15:07:28.274Z,21.45
2023-03-02T15:09:57.197Z,36.63
2023-03-02T15:12:24.838Z,30.77
2023-03-02T15:14:52.034Z,21.70
2023-03-02T15:17:18.969Z,23.45
2023-03-02T15:19:46.336Z,29.20
2023-03-02T15:22:13.586Z,24.05
2023-03-02T15:24:40.952Z,20.42
2023-03-02T15:27:08.259Z,22.60
2023-03-02T15:29:35.628Z,22.65
2023-03-02T15:32:02.678Z,24.80
2023-03-02T15:34:29.864Z,42.70
2023-03-02T15:36:56.748Z,23.55
2023-03-02T15:39:23.941Z,27.87
2023-03-02T15:41:50.886Z,41.50
2023-03-02T15:44:23.017Z,34.47
2023-03-02T15:46:52.733Z,28.27
2023-03-02T15:49:24.881Z,31.20
2023-03-02T15:51:52.258Z,40.73
2023-03-02T15:54:19.599Z,31.63
2023-03-02T15:56:51.943Z,34.87
2023-03-02T15:59:20.624Z,34.97
2023-03-02T16:01:47.577Z,34.57
2023-03-02T16:04:15.015Z,37.10
2023-03-02T16:06:42.150Z,40.03
2023-03-02T16:09:09.803Z,37.83
2023-03-02T16:11:37.208Z,39.93
2023-03-02T16:14:05.070Z,39.83
2023-03-02T16:16:32.118Z,48.37
2023-03-02T16:18:59.630Z,91.10
2023-03-02T16:21:28.716Z,103.77
2023-03-02T16:24:03.279Z,107.23
2023-03-02T16:26:32.527Z,129.93
2023-03-02T16:29:00.332Z,197.47
2023-03-02T16:31:28.494Z,348.97
2023-03-02T16:33:57.683Z,275.27
2023-03-02T16:36:25.853Z,378.27
2023-03-02T16:38:53.042Z,280.95
2023-03-02T16:41:22.348Z,229.80
2023-03-02T16:43:52.126Z,156.73
2023-03-02T16:46:20.198Z,131.70
2023-03-02T16:48:49.621Z,156.32
2023-03-02T16:53:44.167Z,114.73
2023-03-02T16:56:11.829Z,120.93
2023-03-02T16:58:41.576Z,149.63
2023-03-02T17:01:15.596Z,166.20
2023-03-02T17:03:43.743Z,169.40
2023-03-02T17:06:13.276Z,161.77
2023-03-02T17:08:41.036Z,147.30
2023-03-02T17:11:08.011Z,128.83
2023-03-02T17:13:35.500Z,116.60
2023-03-02T17:16:02.949Z,121.80
2023-03-02T17:18:30.871Z,112.73
2023-03-02T17:20:59.466Z,114.53
2023-03-02T17:23:27.517Z,102.68
2023-03-02T17:25:55.690Z,102.30
2023-03-02T17:28:23.783Z,98.35
2023-03-02T17:30:50.961Z,98.73
2023-03-02T17:33:18.456Z,102.70
2023-03-02T17:35:46.379Z,102.20
2023-03-02T17:38:15.133Z,116.13
2023-03-02T17:40:42.913Z,86.75
2023-03-02T17:43:12.462Z,111.53
2023-03-02T17:45:39.939Z,114.20
2023-03-02T17:48:07.396Z,114.23
2023-03-02T17:50:34.705Z,89.07
2023-03-02T17:53:03.093Z,63.93
2023-03-02T17:55:30.412Z,103.72
2023-03-02T17:57:57.951Z,121.80
2023-03-02T18:00:25.069Z,131.87
2023-03-02T18:02:53.536Z,133.97
2023-03-02T18:05:21.935Z,137.13
2023-03-02T18:07:51.695Z,177.30
2023-03-02T18:10:18.703Z,182.40
2023-03-02T18:12:48.755Z,215.37
2023-03-02T18:15:15.777Z,173.30
2023-03-02T18:17:44.246Z,171.80
2023-03-02T18:20:12.612Z,163.20
2023-03-02T18:22:39.840Z,154.95
2023-03-02T18:25:07.299Z,147.47
2023-03-02T18:27:34.805Z,154.13
2023-03-02T18:30:01.815Z,150.63
2023-03-02T18:32:29.014Z,142.23
2023-03-02T18:34:55.925Z,155.20
2023-03-02T18:37:23.168Z,145.10
2023-03-02T18:39:50.207Z,143.33
2023-03-02T18:42:17.390Z,150.03
2023-03-02T18:44:44.376Z,148.70
2023-03-02T18:47:16.815Z,170.33
2023-03-02T18:49:44.610Z,174.40
2023-03-02T18:52:12.169Z,162.48
2023-03-02T18:54:39.721Z,176.63
2023-03-02T18:57:08.969Z,199.00
2023-03-02T18:59:36.806Z,171.02
2023-03-02T19:02:08.282Z,168.80
2023-03-02T19:04:35.269Z,147.30
2023-03-02T19:07:03.061Z,159.30
2023-03-02T19:09:30.456Z,176.27
2023-03-02T19:11:57.721Z,165.47
2023-03-02T19:14:24.674Z,164.07
2023-03-02T19:16:52.023Z,154.87
2023-03-02T19:19:18.959Z,146.13
2023-03-02T19:21:46.240Z,144.03
2023-03-02T19:24:13.270Z,158.40
2023-03-02T19:26:40.628Z,179.97
2023-03-02T19:29:07.605Z,198.93
2023-03-02T19:31:38.398Z,196.07
2023-03-02T19:34:05.600Z,163.97
2023-03-02T19:36:32.849Z,215.27
2023-03-02T19:38:59.880Z,192.10
2023-03-02T19:41:27.073Z,165.53
2023-03-02T19:43:53.965Z,143.23
2023-03-02T19:46:21.159Z,174.80
2023-03-02T19:48:48.093Z,171.93
2023-03-02T19:51:16.842Z,190.90
2023-03-02T19:53:45.148Z,190.48
2023-03-02T19:56:14.779Z,184.25
2023-03-02T19:58:53.700Z,179.63
2023-03-02T20:01:22.197Z,184.00
2023-03-02T20:03:51.726Z,192.35
2023-03-02T20:06:20.451Z,184.87
2023-03-02T20:08:48.171Z,166.95
2023-03-02T20:11:16.637Z,152.95
2023-03-02T20:13:43.924Z,143.73
2023-03-02T20:16:13.883Z,154.17
2023-03-02T20:18:42.280Z,188.07
2023-03-02T20:21:09.540Z,173.45
2023-03-02T20:23:36.494Z,156.40
2023-03-02T20:26:04.700Z,131.20
2023-03-02T20:28:33.179Z,149.33
2023-03-02T20:31:06.268Z,129.77
2023-03-02T20:33:46.593Z,134.13
2023-03-02T20:36:16.667Z,122.77
2023-03-02T20:38:49.898Z,125.00
2023-03-02T20:41:17.713Z,130.30
2023-03-02T20:43:44.961Z,154.47
2023-03-02T20:46:26.328Z,169.53
2023-03-02T20:48:54.361Z,171.80
2023-03-02T20:51:22.389Z,180.10
2023-03-02T20:53:49.777Z,166.47
2023-03-02T20:56:20.980Z,163.20
2023-03-02T20:58:48.515Z,150.70
2023-03-02T21:01:18.067Z,133.97
2023-03-02T21:03:45.151Z,140.60
2023-03-02T21:06:13.861Z,141.87
2023-03-02T21:08:41.193Z,130.82
2023-03-02T21:11:11.482Z,146.07
2023-03-02T21:13:39.333Z,151.80
2023-03-02T21:16:09.579Z,145.10
2023-03-02T21:18:36.564Z,145.43
2023-03-02T21:21:04.340Z,133.80
2023-03-02T21:23:31.278Z,134.87
2023-03-02T21:25:58.620Z,121.47
2023-03-02T21:28:25.623Z,116.67
2023-03-02T21:30:52.854Z,120.53
2023-03-02T21:33:19.835Z,120.27
2023-03-02T21:35:47.094Z,138.47
2023-03-02T21:38:14.809Z,134.60
2023-03-02T21:40:45.957Z,100.78
2023-03-02T21:43:14.900Z,113.53
2023-03-02T21:45:42.577Z,115.73
2023-03-02T21:48:12.363Z,108.00
2023-03-02T21:50:40.432Z,106.80
2023-03-02T21:53:07.375Z,110.40
2023-03-02T21:55:35.482Z,107.23
2023-03-02T21:58:02.700Z,107.63
2023-03-02T22:00:35.769Z,109.43
2023-03-02T22:03:03.333Z,121.37
2023-03-02T22:05:31.763Z,117.17
2023-03-02T22:07:59.098Z,115.13
2023-03-02T22:10:44.769Z,123.07
2023-03-02T22:13:19.931Z,115.73
2023-03-02T22:15:48.100Z,114.63
2023-03-02T22:18:20.121Z,113.57
2023-03-02T22:20:50.164Z,111.43
2023-03-02T22:23:23.067Z,114.00
2023-03-02T22:25:53.887Z,113.03
2023-03-02T22:28:23.568Z,107.53
2023-03-02T22:30:52.478Z,111.97
2023-03-02T22:33:22.121Z,114.10
2023-03-02T22:35:51.714Z,118.53
2023-03-02T22:38:27.377Z,122.90
2023-03-02T22:40:55.678Z,121.20
2023-03-02T22:43:29.255Z,125.50
2023-03-02T22:46:17.559Z,114.40
2023-03-02T22:48:52.121Z,116.30
2023-03-02T22:51:28.178Z,124.77
2023-03-02T22:53:59.864Z,125.97
2023-03-02T22:56:31.439Z,120.83
2023-03-02T22:59:19.345Z,117.67
2023-03-02T23:01:46.682Z,114.95
2023-03-02T23:04:36.126Z,109.17
2023-03-02T23:07:14.322Z,112.07
2023-03-02T23:09:41.148Z,108.30
2023-03-02T23:12:24.312Z,105.20
2023-03-02T23:14:56.942Z,96.67
2023-03-02T23:17:39.093Z,104.73
2023-03-02T23:20:10.145Z,108.47
2023-03-02T23:22:39.139Z,103.93
2023-03-02T23:25:08.008Z,101.00
2023-03-02T23:27:35.472Z,102.60
2023-03-02T23:30:02.944Z,107.10
2023-03-02T23:32:30.328Z,110.60
2023-03-02T23:34:57.383Z,100.50
2023-03-02T23:37:24.661Z,99.23
2023-03-02T23:39:52.240Z,92.17
2023-03-02T23:42:19.389Z,94.77
2023-03-02T23:44:46.233Z,93.93
2023-03-02T23:47:13.424Z,91.60
2023-03-02T23:49:40.364Z,90.30
2023-03-02T23:52:07.588Z,89.90
2023-03-02T23:54:34.494Z,85.00
2023-03-02T23:57:01.736Z,86.00
2023-03-02T23:59:28.665Z,85.13
